Time;durP1;ratioP1;P1;durP2;ratioP2;P2;SDS_P1;SDS_P2;PMS_P1;PMS_P2;Temp;Humidity;BMP_temperature;BMP_pressure;BME280_temperature;BME280_humidity;BME280_pressure;Samples;Min_cycle;Max_cycle;Signal;HPM_P1;HPM_P2
2023/07/10 00:00:20;;;;;;;14.90;13.50;;;;;;;;;;112578;1230;58817;-70
2023/07/10 00:03:09;;;;;;;15.20;13.70;;;;;;;;;;112609;1230;64238;-70
2023/07/10 00:05:35;;;;;;;16.60;14.90;;;;;;;;;;112492;1231;58879;-70
2023/07/10 00:08:01;;;;;;;15.60;14.00;;;;;;;;;;112627;1230;58939;-71
2023/07/10 00:10:27;;;;;;;17.50;14.50;;;;;;;;;;112239;1230;58905;-70
2023/07/10 00:12:53;;;;;;;17.70;15.80;;;;;;;;;;112646;1230;58981;-70
2023/07/10 00:15:20;;;;;;;17.30;15.50;;;;;;;;;;112658;1229;59058;-70
2023/07/10 00:17:47;;;;;;;18.00;15.90;;;;;;;;;;112629;1230;58869;-71
2023/07/10 00:20:13;;;;;;;19.10;16.70;;;;;;;;;;112294;1231;59074;-70
2023/07/10 00:22:39;;;;;;;17.70;15.90;;;;;;;;;;112582;1230;58977;-71
2023/07/10 00:25:05;;;;;;;18.10;15.60;;;;;;;;;;112675;1230;58877;-70
2023/07/10 00:27:31;;;;;;;17.60;15.90;;;;;;;;;;112616;1230;58937;-70
2023/07/10 00:29:56;;;;;;;18.90;16.70;;;;;;;;;;112611;1231;59069;-70
2023/07/10 00:32:22;;;;;;;19.50;16.70;;;;;;;;;;112622;1230;58995;-70
2023/07/10 00:34:48;;;;;;;19.20;16.30;;;;;;;;;;112623;1230;58785;-70
2023/07/10 00:37:13;;;;;;;16.90;15.20;;;;;;;;;;112641;1233;59315;-71
2023/07/10 00:39:39;;;;;;;18.00;16.20;;;;;;;;;;112614;1231;58885;-70
2023/07/10 00:42:14;;;;;;;17.60;15.90;;;;;;;;;;112601;1231;58934;-70
2023/07/10 00:44:51;;;;;;;17.50;15.80;;;;;;;;;;112581;1230;58955;-70
2023/07/10 00:47:21;;;;;;;16.50;14.90;;;;;;;;;;112626;1229;58772;-70
2023/07/10 00:49:47;;;;;;;;;;;;;;;;;;112623;1230;60712;-70
2023/07/10 00:52:16;;;;;;;16.60;15.00;;;;;;;;;;112624;1230;58810;-70
2023/07/10 00:54:47;;;;;;;19.80;16.00;;;;;;;;;;112622;1230;59766;-70
2023/07/10 00:57:14;;;;;;;17.70;15.90;;;;;;;;;;112564;1230;58979;-70
2023/07/10 00:59:40;;;;;;;18.60;16.70;;;;;;;;;;112317;1230;59039;-70
2023/07/10 01:02:15;;;;;;;17.70;15.70;;;;;;;;;;112587;1230;61895;-70
2023/07/10 01:04:42;;;;;;;17.60;15.80;;;;;;;;;;112598;1231;58796;-70
2023/07/10 01:07:12;;;;;;;17.10;14.80;;;;;;;;;;112599;1230;58851;-70
2023/07/10 01:09:39;;;;;;;18.00;15.60;;;;;;;;;;112602;1230;58921;-70
2023/07/10 01:12:06;;;;;;;17.40;15.40;;;;;;;;;;112601;1230;59039;-70
2023/07/10 01:14:34;;;;;;;18.50;16.10;;;;;;;;;;112594;1229;58938;-70
2023/07/10 01:17:01;;;;;;;17.40;15.60;;;;;;;;;;112618;1230;59001;-70
2023/07/10 01:19:27;;;;;;;17.70;16.00;;;;;;;;;;112582;1230;58795;-70
2023/07/10 01:21:53;;;;;;;17.30;15.60;;;;;;;;;;112547;1231;58925;-70
2023/07/10 01:24:19;;;;;;;16.70;15.00;;;;;;;;;;112609;1230;59128;-70
2023/07/10 01:26:44;;;;;;;15.80;14.20;;;;;;;;;;112394;1234;59166;-70
2023/07/10 01:29:21;;;;;;;16.90;15.20;;;;;;;;;;112644;1230;58879;-70
2023/07/10 01:31:48;;;;;;;17.10;15.30;;;;;;;;;;112586;1230;58960;-71
2023/07/10 01:34:14;;;;;;;17.80;15.60;;;;;;;;;;112605;1230;59052;-70
2023/07/10 01:36:40;;;;;;;19.60;15.90;;;;;;;;;;112635;1230;58939;-71
2023/07/10 01:39:09;;;;;;;17.50;15.20;;;;;;;;;;112616;1230;58978;-70
2023/07/10 01:41:39;;;;;;;18.00;15.80;;;;;;;;;;112601;1230;58850;-70
2023/07/10 01:44:05;;;;;;;;;;;;;;;;;;112598;1230;60149;-70
2023/07/10 01:46:30;;;;;;;17.20;15.20;;;;;;;;;;112390;1230;59043;-70
2023/07/10 01:48:58;;;;;;;17.20;15.40;;;;;;;;;;112652;1230;58986;-70
2023/07/10 01:51:24;;;;;;;17.40;15.60;;;;;;;;;;112323;1231;58953;-70
2023/07/10 01:53:50;;;;;;;17.40;15.60;;;;;;;;;;112613;1231;58980;-71
2023/07/10 01:56:17;;;;;;;19.80;16.00;;;;;;;;;;112461;1230;58930;-71
2023/07/10 01:58:43;;;;;;;16.40;14.60;;;;;;;;;;112626;1230;58928;-71
2023/07/10 02:01:09;;;;;;;17.00;15.30;;;;;;;;;;112635;1230;59788;-70
2023/07/10 02:03:35;;;;;;;17.50;14.00;;;;;;;;;;112606;1229;59186;-71
2023/07/10 02:06:01;;;;;;;15.20;13.80;;;;;;;;;;112635;1230;58769;-71
2023/07/10 02:08:27;;;;;;;15.60;14.00;;;;;;;;;;112560;1230;59013;-71
2023/07/10 02:10:53;;;;;;;18.50;16.00;;;;;;;;;;112663;1230;58899;-71
2023/07/10 02:13:19;;;;;;;18.80;16.70;;;;;;;;;;112644;1231;61737;-71
2023/07/10 02:15:45;;;;;;;17.10;15.40;;;;;;;;;;112630;1230;58987;-71
2023/07/10 02:18:10;;;;;;;16.90;15.30;;;;;;;;;;112572;1230;58902;-71
2023/07/10 02:20:36;;;;;;;17.00;15.30;;;;;;;;;;112610;1230;58895;-71
2023/07/10 02:23:02;;;;;;;18.60;16.00;;;;;;;;;;112672;1230;58912;-71
2023/07/10 02:25:27;;;;;;;16.40;14.90;;;;;;;;;;112649;1231;58909;-71
2023/07/10 02:27:53;;;;;;;17.90;15.50;;;;;;;;;;112580;1231;58814;-71
2023/07/10 02:30:19;;;;;;;18.70;16.70;;;;;;;;;;112623;1230;58989;-71
2023/07/10 02:32:44;;;;;;;18.10;15.80;;;;;;;;;;112631;1229;58974;-71
2023/07/10 02:35:10;;;;;;;17.90;16.20;;;;;;;;;;112610;1229;58989;-71
2023/07/10 02:37:36;;;;;;;17.10;15.50;;;;;;;;;;112605;1229;59010;-71
2023/07/10 02:40:03;;;;;;;17.70;16.10;;;;;;;;;;112634;1233;59015;-71
2023/07/10 02:42:28;;;;;;;19.50;17.50;;;;;;;;;;112356;1229;58913;-70
2023/07/10 02:44:54;;;;;;;16.90;15.20;;;;;;;;;;112653;1231;58949;-71
2023/07/10 02:47:20;;;;;;;20.90;16.70;;;;;;;;;;112633;1229;58875;-71
2023/07/10 02:49:46;;;;;;;19.20;17.40;;;;;;;;;;112639;1229;58893;-71
2023/07/10 02:52:12;;;;;;;21.30;17.80;;;;;;;;;;112602;1230;59170;-71
2023/07/10 02:54:37;;;;;;;18.40;16.40;;;;;;;;;;112477;1230;59132;-70
2023/07/10 02:57:03;;;;;;;20.70;18.00;;;;;;;;;;112644;1231;58884;-71
2023/07/10 02:59:29;;;;;;;17.80;16.00;;;;;;;;;;112612;1230;59340;-71
2023/07/10 03:01:55;;;;;;;19.60;17.00;;;;;;;;;;112656;1230;58942;-71
2023/07/10 03:04:20;;;;;;;19.30;16.80;;;;;;;;;;112612;1230;58921;-71
2023/07/10 03:06:48;;;;;;;20.40;15.70;;;;;;;;;;112708;1230;58980;-71
2023/07/10 03:09:14;;;;;;;18.10;16.20;;;;;;;;;;112631;1231;58810;-70
2023/07/10 03:11:39;;;;;;;19.10;17.10;;;;;;;;;;112582;1229;58950;-70
2023/07/10 03:14:05;;;;;;;19.00;16.30;;;;;;;;;;112636;1230;58887;-71
2023/07/10 03:16:31;;;;;;;17.10;15.50;;;;;;;;;;112637;1231;58848;-70
2023/07/10 03:18:56;;;;;;;18.40;16.50;;;;;;;;;;112573;1230;58947;-71
2023/07/10 03:21:22;;;;;;;18.10;16.50;;;;;;;;;;112594;1230;58959;-70
2023/07/10 03:23:48;;;;;;;19.50;17.40;;;;;;;;;;112553;1230;59433;-70
2023/07/10 03:26:14;;;;;;;19.10;16.70;;;;;;;;;;112638;1229;59208;-70
2023/07/10 03:28:40;;;;;;;17.80;16.10;;;;;;;;;;112639;1231;58857;-70
2023/07/10 03:31:06;;;;;;;18.60;16.70;;;;;;;;;;112639;1231;59012;-70
2023/07/10 03:33:31;;;;;;;17.60;15.80;;;;;;;;;;112648;1229;58950;-70
2023/07/10 03:35:58;;;;;;;17.10;15.50;;;;;;;;;;112617;1229;59032;-70
2023/07/10 03:38:24;;;;;;;16.80;15.10;;;;;;;;;;112592;1231;61869;-70
2023/07/10 03:40:51;;;;;;;17.40;15.80;;;;;;;;;;112582;1233;58877;-71
2023/07/10 03:43:16;;;;;;;18.00;15.90;;;;;;;;;;112385;1230;58976;-70
2023/07/10 03:45:42;;;;;;;17.80;14.70;;;;;;;;;;112664;1231;58991;-70
2023/07/10 03:48:08;;;;;;;17.20;14.90;;;;;;;;;;112655;1229;59015;-70
2023/07/10 03:50:34;;;;;;;16.90;15.20;;;;;;;;;;112653;1231;58986;-71
2023/07/10 03:53:00;;;;;;;19.70;17.70;;;;;;;;;;112630;1230;58953;-70
2023/07/10 03:55:26;;;;;;;20.60;18.60;;;;;;;;;;112650;1231;58956;-71
2023/07/10 03:57:51;;;;;;;18.00;16.20;;;;;;;;;;112302;1230;58966;-71
2023/07/10 04:00:17;;;;;;;17.60;15.90;;;;;;;;;;112591;1230;58959;-71
2023/07/10 04:02:43;;;;;;;19.30;17.40;;;;;;;;;;112635;1231;58832;-71
2023/07/10 04:05:09;;;;;;;19.80;17.90;;;;;;;;;;112638;1230;58940;-71
2023/07/10 04:07:34;;;;;;;19.60;17.60;;;;;;;;;;112636;1230;58996;-71
2023/07/10 04:10:00;;;;;;;20.10;17.90;;;;;;;;;;112636;1230;59009;-71
2023/07/10 04:12:26;;;;;;;18.50;16.70;;;;;;;;;;112609;1230;58863;-71
2023/07/10 04:14:52;;;;;;;18.80;16.90;;;;;;;;;;112573;1231;59244;-71
2023/07/10 04:17:17;;;;;;;19.50;17.50;;;;;;;;;;112437;1230;58910;-71
2023/07/10 04:19:44;;;;;;;17.70;16.00;;;;;;;;;;112603;1231;59327;-71
2023/07/10 04:22:10;;;;;;;18.50;16.60;;;;;;;;;;112646;1231;58990;-71
2023/07/10 04:24:36;;;;;;;17.50;15.90;;;;;;;;;;112614;1231;58863;-71
2023/07/10 04:27:01;;;;;;;17.40;15.70;;;;;;;;;;112624;1230;58958;-71
2023/07/10 04:29:27;;;;;;;17.60;15.80;;;;;;;;;;112695;1229;58927;-71
2023/07/10 04:31:53;;;;;;;16.20;14.60;;;;;;;;;;112357;1230;60401;-71
2023/07/10 04:34:19;;;;;;;16.70;15.20;;;;;;;;;;112635;1231;58916;-71
2023/07/10 04:36:44;;;;;;;17.60;15.70;;;;;;;;;;112584;1230;58964;-73
2023/07/10 04:39:10;;;;;;;15.80;13.60;;;;;;;;;;112580;1231;58857;-71
2023/07/10 04:41:37;;;;;;;15.10;13.70;;;;;;;;;;112624;1230;58911;-72
2023/07/10 04:44:03;;;;;;;15.30;13.90;;;;;;;;;;112614;1230;58860;-71
2023/07/10 04:46:29;;;;;;;15.70;13.90;;;;;;;;;;112582;1231;58878;-72
2023/07/10 04:48:54;;;;;;;13.80;12.60;;;;;;;;;;112371;1230;59023;-72
2023/07/10 04:51:20;;;;;;;13.60;12.40;;;;;;;;;;112600;1230;58740;-72
2023/07/10 04:53:47;;;;;;;14.30;12.50;;;;;;;;;;112652;1233;59027;-72
2023/07/10 04:56:13;;;;;;;14.50;13.10;;;;;;;;;;112607;1230;58940;-72
2023/07/10 04:58:45;;;;;;;13.40;12.30;;;;;;;;;;112592;1231;58944;-72
2023/07/10 05:01:11;;;;;;;13.60;12.40;;;;;;;;;;112578;1230;58899;-72
2023/07/10 05:03:37;;;;;;;12.50;11.40;;;;;;;;;;112597;1231;58960;-71
2023/07/10 05:06:02;;;;;;;13.50;12.40;;;;;;;;;;112286;1230;59200;-72
2023/07/10 05:08:28;;;;;;;11.90;10.70;;;;;;;;;;112621;1230;58863;-71
2023/07/10 05:10:54;;;;;;;12.50;11.40;;;;;;;;;;112595;1231;58972;-72
2023/07/10 05:13:22;;;;;;;12.70;10.90;;;;;;;;;;112568;1230;58945;-72
2023/07/10 05:15:48;;;;;;;11.40;10.50;;;;;;;;;;112632;1231;58971;-72
2023/07/10 05:18:15;;;;;;;10.20;9.40;;;;;;;;;;112608;1231;58863;-71
2023/07/10 05:20:43;;;;;;;10.50;9.60;;;;;;;;;;112559;1230;59002;-71
2023/07/10 05:23:09;;;;;;;10.60;9.70;;;;;;;;;;112609;1229;58986;-72
2023/07/10 05:25:34;;;;;;;11.00;10.10;;;;;;;;;;112400;1230;59060;-72
2023/07/10 05:28:01;;;;;;;10.30;9.30;;;;;;;;;;112693;1230;58986;-72
2023/07/10 05:30:27;;;;;;;10.90;10.00;;;;;;;;;;112577;1231;59086;-72
2023/07/10 05:32:53;;;;;;;11.60;10.50;;;;;;;;;;112619;1231;59076;-72
2023/07/10 05:35:19;;;;;;;11.40;10.30;;;;;;;;;;112617;1230;58963;-72
2023/07/10 05:37:45;;;;;;;12.00;10.90;;;;;;;;;;112654;1230;59176;-72
2023/07/10 05:40:10;;;;;;;11.60;10.50;;;;;;;;;;112416;1231;59017;-72
2023/07/10 05:42:38;;;;;;;11.60;9.80;;;;;;;;;;112659;1231;58923;-72
2023/07/10 05:45:04;;;;;;;11.60;10.50;;;;;;;;;;112622;1231;59749;-72
2023/07/10 05:47:29;;;;;;;10.70;9.80;;;;;;;;;;112613;1230;58868;-72
2023/07/10 05:49:55;;;;;;;10.50;9.40;;;;;;;;;;112654;1231;58936;-72
2023/07/10 05:52:21;;;;;;;10.60;9.70;;;;;;;;;;112618;1231;59147;-72
2023/07/10 05:54:47;;;;;;;9.70;8.80;;;;;;;;;;112625;1231;58969;-72
2023/07/10 05:57:12;;;;;;;9.80;9.00;;;;;;;;;;112561;1233;58854;-72
2023/07/10 05:59:38;;;;;;;10.80;9.70;;;;;;;;;;112704;1230;58907;-72
2023/07/10 06:02:04;;;;;;;9.70;8.90;;;;;;;;;;112608;1231;61715;-70
2023/07/10 06:04:30;;;;;;;9.00;8.10;;;;;;;;;;112615;1231;58882;-72
2023/07/10 06:06:55;;;;;;;9.70;8.00;;;;;;;;;;112390;1231;59084;-72
2023/07/10 06:09:21;;;;;;;9.20;8.40;;;;;;;;;;112599;1230;59082;-72
2023/07/10 06:11:47;;;;;;;9.10;8.00;;;;;;;;;;112259;1235;59162;-72
2023/07/10 06:14:14;;;;;;;8.90;8.10;;;;;;;;;;112687;1231;59415;-72
2023/07/10 06:16:39;;;;;;;9.30;8.40;;;;;;;;;;112600;1230;59656;-72
2023/07/10 06:19:05;;;;;;;8.30;7.60;;;;;;;;;;112575;1232;58862;-72
2023/07/10 06:21:31;;;;;;;11.00;8.50;;;;;;;;;;112588;1231;58908;-72
2023/07/10 06:23:56;;;;;;;9.30;8.00;;;;;;;;;;112625;1232;58957;-72
2023/07/10 06:26:22;;;;;;;8.20;7.40;;;;;;;;;;112631;1230;59074;-70
2023/07/10 06:28:48;;;;;;;9.40;8.30;;;;;;;;;;112648;1232;59038;-71
2023/07/10 06:31:13;;;;;;;10.30;8.30;;;;;;;;;;112201;1231;58912;-71
2023/07/10 06:33:39;;;;;;;10.00;8.20;;;;;;;;;;112604;1231;58955;-71
2023/07/10 06:36:05;;;;;;;13.10;8.70;;;;;;;;;;112609;1230;58960;-72
2023/07/10 06:38:31;;;;;;;9.60;8.60;;;;;;;;;;112571;1230;59094;-71
2023/07/10 06:40:57;;;;;;;9.60;8.70;;;;;;;;;;112626;1230;58977;-71
2023/07/10 06:43:23;;;;;;;9.20;7.80;;;;;;;;;;112635;1232;59825;-71
2023/07/10 06:45:49;;;;;;;9.30;8.40;;;;;;;;;;112617;1230;59162;-71
2023/07/10 06:48:15;;;;;;;12.10;10.10;;;;;;;;;;112670;1232;59073;-71
2023/07/10 06:50:44;;;;;;;9.60;8.30;;;;;;;;;;112638;1231;58919;-71
2023/07/10 06:53:10;;;;;;;;;;;;;;;;;;112642;1231;59012;-71
2023/07/10 06:55:36;;;;;;;9.80;8.80;;;;;;;;;;112592;1232;59335;-71
2023/07/10 06:58:02;;;;;;;9.20;8.40;;;;;;;;;;112634;1232;58867;-72
2023/07/10 07:00:28;;;;;;;8.80;7.90;;;;;;;;;;112585;1232;58981;-72
2023/07/10 07:02:53;;;;;;;9.10;8.20;;;;;;;;;;112613;1230;58824;-73
2023/07/10 07:05:19;;;;;;;9.00;8.20;;;;;;;;;;112621;1231;58926;-72
2023/07/10 07:07:45;;;;;;;10.40;8.20;;;;;;;;;;112682;1230;59030;-72
2023/07/10 07:10:13;;;;;;;11.10;8.60;;;;;;;;;;112593;1231;59547;-72
2023/07/10 07:12:39;;;;;;;10.60;9.50;;;;;;;;;;112594;1231;59351;-71
2023/07/10 07:15:05;;;;;;;9.10;8.40;;;;;;;;;;112659;1232;58920;-72
2023/07/10 07:17:31;;;;;;;9.20;8.40;;;;;;;;;;112634;1232;58996;-72
2023/07/10 07:19:57;;;;;;;8.60;7.80;;;;;;;;;;112590;1230;58965;-72
2023/07/10 07:22:23;;;;;;;9.00;8.10;;;;;;;;;;112597;1230;58922;-72
2023/07/10 07:24:49;;;;;;;9.80;8.90;;;;;;;;;;112608;1232;58998;-72
2023/07/10 07:27:14;;;;;;;10.00;9.10;;;;;;;;;;112412;1230;58999;-72
2023/07/10 07:29:40;;;;;;;11.60;9.30;;;;;;;;;;112669;1232;58918;-71
2023/07/10 07:32:06;;;;;;;11.90;9.50;;;;;;;;;;112551;1232;60641;-71
2023/07/10 07:34:32;;;;;;;12.00;9.80;;;;;;;;;;112599;1231;58943;-71
2023/07/10 07:36:57;;;;;;;9.60;8.70;;;;;;;;;;112284;1232;59006;-71
2023/07/10 07:39:28;;;;;;;9.50;8.70;;;;;;;;;;112519;1230;141410;-71
2023/07/10 07:41:54;;;;;;;11.00;10.00;;;;;;;;;;112620;1231;59198;-71
2023/07/10 07:44:19;;;;;;;9.50;8.50;;;;;;;;;;112617;1230;58924;-71
2023/07/10 07:46:45;;;;;;;10.60;9.20;;;;;;;;;;112572;1231;58832;-72
2023/07/10 07:49:11;;;;;;;10.80;8.80;;;;;;;;;;112586;1232;58896;-71
2023/07/10 07:51:37;;;;;;;9.40;8.20;;;;;;;;;;112626;1230;58911;-71
2023/07/10 07:54:04;;;;;;;9.60;8.70;;;;;;;;;;112610;1231;59074;-72
2023/07/10 07:56:30;;;;;;;8.60;7.80;;;;;;;;;;112565;1230;58879;-71
2023/07/10 07:58:56;;;;;;;9.60;8.70;;;;;;;;;;112584;1232;58878;-72
2023/07/10 08:01:21;;;;;;;8.20;7.60;;;;;;;;;;112664;1230;59002;-71
2023/07/10 08:03:47;;;;;;;9.10;7.80;;;;;;;;;;112582;1230;58984;-70
2023/07/10 08:06:13;;;;;;;8.70;7.50;;;;;;;;;;112598;1231;58971;-70
2023/07/10 08:08:38;;;;;;;8.60;7.50;;;;;;;;;;112369;1231;58889;-72
2023/07/10 08:11:06;;;;;;;8.60;7.90;;;;;;;;;;112610;1230;58911;-71
2023/07/10 08:13:31;;;;;;;7.80;6.90;;;;;;;;;;112639;1231;58931;-71
2023/07/10 08:15:58;;;;;;;8.60;7.80;;;;;;;;;;112640;1232;59094;-71
2023/07/10 08:18:24;;;;;;;7.50;6.90;;;;;;;;;;112575;1231;58896;-71
2023/07/10 08:20:50;;;;;;;7.30;6.70;;;;;;;;;;112590;1230;58947;-72
2023/07/10 08:23:16;;;;;;;7.30;6.60;;;;;;;;;;112291;1232;58899;-71
2023/07/10 08:25:42;;;;;;;7.90;6.80;;;;;;;;;;112578;1231;58924;-73
2023/07/10 08:28:07;;;;;;;7.70;7.10;;;;;;;;;;112615;1230;58971;-72
2023/07/10 08:30:33;;;;;;;8.50;7.00;;;;;;;;;;112568;1231;58939;-72
2023/07/10 08:32:59;;;;;;;6.70;6.20;;;;;;;;;;112629;1232;58908;-72
2023/07/10 08:35:25;;;;;;;7.90;7.30;;;;;;;;;;112641;1232;58991;-72
2023/07/10 08:37:51;;;;;;;7.60;6.90;;;;;;;;;;112636;1230;58853;-71
2023/07/10 08:40:22;;;;;;;8.10;7.30;;;;;;;;;;112617;1232;58935;-72
2023/07/10 08:42:48;;;;;;;7.50;6.80;;;;;;;;;;112583;1232;58921;-71
2023/07/10 08:45:19;;;;;;;7.60;6.80;;;;;;;;;;112603;1230;58833;-72
2023/07/10 08:47:48;;;;;;;8.00;7.30;;;;;;;;;;112234;1232;62010;-72
2023/07/10 08:50:14;;;;;;;;;;;;;;;;;;112615;1230;58876;-72
2023/07/10 08:52:53;;;;;;;8.20;7.50;;;;;;;;;;112616;1230;59005;-72
2023/07/10 08:55:27;;;;;;;7.90;7.10;;;;;;;;;;112276;1230;58988;-72
2023/07/10 08:58:01;;;;;;;9.00;7.70;;;;;;;;;;112588;1231;58830;-72
2023/07/10 09:00:28;;;;;;;8.50;7.70;;;;;;;;;;112609;1231;62061;-72
2023/07/10 09:03:06;;;;;;;7.80;7.00;;;;;;;;;;112578;1232;58877;-72
2023/07/10 09:05:34;;;;;;;8.90;7.10;;;;;;;;;;112559;1231;59737;-72
2023/07/10 09:08:02;;;;;;;9.00;7.40;;;;;;;;;;112531;1230;58888;-72
2023/07/10 09:10:38;;;;;;;9.90;7.20;;;;;;;;;;112545;1232;58823;-73
2023/07/10 09:13:04;;;;;;;7.50;6.80;;;;;;;;;;112598;1231;62121;-72
2023/07/10 09:15:32;;;;;;;7.80;6.30;;;;;;;;;;112605;1230;58952;-72
2023/07/10 09:18:07;;;;;;;6.90;5.90;;;;;;;;;;112615;1232;59420;-72
2023/07/10 09:20:33;;;;;;;7.30;6.60;;;;;;;;;;112596;1230;58995;-72
2023/07/10 09:23:00;;;;;;;6.80;6.20;;;;;;;;;;112604;1232;58865;-73
2023/07/10 09:25:27;;;;;;;7.60;7.00;;;;;;;;;;112595;1230;60570;-72
2023/07/10 09:27:52;;;;;;;8.30;6.10;;;;;;;;;;112582;1232;58852;-73
2023/07/10 09:30:37;;;;;;;6.50;5.90;;;;;;;;;;112564;1232;58946;-73
2023/07/10 09:33:03;;;;;;;6.50;5.90;;;;;;;;;;112548;1230;58880;-73
2023/07/10 09:35:29;;;;;;;7.10;6.40;;;;;;;;;;112586;1232;58839;-71
2023/07/10 09:37:55;;;;;;;6.40;5.80;;;;;;;;;;112602;1231;58960;-73
2023/07/10 09:40:24;;;;;;;6.70;5.90;;;;;;;;;;112612;1234;58834;-72
2023/07/10 09:43:00;;;;;;;6.70;6.10;;;;;;;;;;112679;1232;60555;-71
2023/07/10 09:45:31;;;;;;;6.50;5.50;;;;;;;;;;112598;1232;59155;-71
2023/07/10 09:47:56;;;;;;;6.50;5.20;;;;;;;;;;112568;1230;58945;-72
2023/07/10 09:50:22;;;;;;;7.60;5.40;;;;;;;;;;112616;1230;59427;-71
2023/07/10 09:52:52;;;;;;;5.50;4.70;;;;;;;;;;112614;1232;58911;-72
2023/07/10 09:55:18;;;;;;;7.00;5.70;;;;;;;;;;112642;1230;59512;-71
2023/07/10 09:58:04;;;;;;;5.00;4.60;;;;;;;;;;112595;1233;59045;-71
2023/07/10 10:00:30;;;;;;;5.30;4.70;;;;;;;;;;112632;1232;58794;-71
2023/07/10 10:02:58;;;;;;;5.80;5.00;;;;;;;;;;112582;1231;58961;-72
2023/07/10 10:05:24;;;;;;;6.50;5.50;;;;;;;;;;112641;1231;58864;-72
2023/07/10 10:07:51;;;;;;;5.50;5.00;;;;;;;;;;112619;1230;59343;-72
2023/07/10 10:10:28;;;;;;;5.00;4.60;;;;;;;;;;112607;1230;58975;-72
2023/07/10 10:13:06;;;;;;;5.50;5.00;;;;;;;;;;112646;1231;59056;-71
2023/07/10 10:15:40;;;;;;;5.00;4.70;;;;;;;;;;112571;1232;60788;-72
2023/07/10 10:18:09;;;;;;;5.10;4.60;;;;;;;;;;112622;1231;58846;-75
2023/07/10 10:20:35;;;;;;;;;;;;;;;;;;112610;1230;58961;-71
2023/07/10 10:23:01;;;;;;;4.60;4.20;;;;;;;;;;112590;1230;58962;-71
2023/07/10 10:25:31;;;;;;;5.30;4.90;;;;;;;;;;112625;1232;58916;-72
2023/07/10 10:28:06;;;;;;;6.10;4.70;;;;;;;;;;112653;1231;60719;-71
2023/07/10 10:30:34;;;;;;;5.20;4.70;;;;;;;;;;112586;1231;58833;-72
2023/07/10 10:33:05;;;;;;;5.20;4.10;;;;;;;;;;112596;1231;60415;-72
2023/07/10 10:35:40;;;;;;;4.90;4.50;;;;;;;;;;112552;1230;58998;-71
2023/07/10 10:38:24;;;;;;;5.10;4.60;;;;;;;;;;112564;1231;58774;-78
2023/07/10 10:40:51;;;;;;;4.70;4.30;;;;;;;;;;112604;1230;60436;-73
2023/07/10 10:43:37;;;;;;;5.30;4.80;;;;;;;;;;112598;1230;59585;-73
2023/07/10 10:46:06;;;;;;;4.80;4.40;;;;;;;;;;112587;1231;58865;-72
2023/07/10 10:48:35;;;;;;;5.30;4.60;;;;;;;;;;112547;1230;59104;-73
2023/07/10 10:51:00;;;;;;;4.10;3.70;;;;;;;;;;112621;1232;58931;-72
2023/07/10 10:53:45;;;;;;;4.70;4.30;;;;;;;;;;112620;1231;58947;-73
2023/07/10 10:56:31;;;;;;;4.70;4.30;;;;;;;;;;112598;1230;58977;-73
2023/07/10 10:59:02;;;;;;;4.70;4.30;;;;;;;;;;112590;1230;58963;-72
2023/07/10 11:01:33;;;;;;;4.30;3.90;;;;;;;;;;112598;1231;59302;-72
2023/07/10 11:04:03;;;;;;;6.00;4.10;;;;;;;;;;112610;1230;58826;-72
2023/07/10 11:06:33;;;;;;;4.30;4.00;;;;;;;;;;112630;1231;61621;-72
2023/07/10 11:09:01;;;;;;;6.60;4.10;;;;;;;;;;112628;1230;58888;-72
2023/07/10 11:11:29;;;;;;;4.40;4.00;;;;;;;;;;112574;1231;59519;-71
2023/07/10 11:13:55;;;;;;;4.40;4.00;;;;;;;;;;112278;1230;58978;-71
2023/07/10 11:16:21;;;;;;;3.50;3.20;;;;;;;;;;112629;1230;58911;-71
2023/07/10 11:18:47;;;;;;;3.60;3.40;;;;;;;;;;112605;1230;58943;-71
2023/07/10 11:21:12;;;;;;;5.10;4.10;;;;;;;;;;112658;1231;58978;-72
2023/07/10 11:23:41;;;;;;;5.60;4.10;;;;;;;;;;112599;1230;58970;-71
2023/07/10 11:26:07;;;;;;;6.00;4.20;;;;;;;;;;112612;1231;58882;-71
2023/07/10 11:28:33;;;;;;;5.10;3.90;;;;;;;;;;112613;1231;58992;-71
2023/07/10 11:31:17;;;;;;;4.80;4.20;;;;;;;;;;112597;1231;58949;-71
2023/07/10 11:33:43;;;;;;;6.70;4.60;;;;;;;;;;112413;1231;58993;-71
2023/07/10 11:36:14;;;;;;;6.30;4.00;;;;;;;;;;112574;1230;59046;-72
2023/07/10 11:38:59;;;;;;;5.30;4.30;;;;;;;;;;112581;1229;58935;-72
2023/07/10 11:41:26;;;;;;;7.90;5.00;;;;;;;;;;112571;1232;58924;-72
2023/07/10 11:43:52;;;;;;;5.90;4.30;;;;;;;;;;112605;1231;61731;-72
2023/07/10 11:46:23;;;;;;;3.90;3.60;;;;;;;;;;112610;1230;58751;-72
2023/07/10 11:49:01;;;;;;;4.00;3.60;;;;;;;;;;112623;1230;59480;-72
2023/07/10 11:51:28;;;;;;;9.30;3.80;;;;;;;;;;112561;1231;58910;-72
2023/07/10 11:54:20;;;;;;;4.80;4.30;;;;;;;;;;112584;1230;58845;-72
2023/07/10 11:57:10;;;;;;;7.30;4.30;;;;;;;;;;111848;1237;61708;-71
2023/07/10 11:59:36;;;;;;;4.80;4.10;;;;;;;;;;111849;1237;58966;-71
2023/07/10 12:02:10;;;;;;;8.10;3.80;;;;;;;;;;111847;1237;58997;-71
2023/07/10 12:04:36;;;;;;;7.30;4.20;;;;;;;;;;111811;1237;58976;-71
2023/07/10 12:07:02;;;;;;;5.60;4.80;;;;;;;;;;111876;1237;59050;-71
2023/07/10 12:09:28;;;;;;;7.70;4.80;;;;;;;;;;111844;1237;58901;-72
2023/07/10 12:11:55;;;;;;;5.00;4.50;;;;;;;;;;111897;1238;58939;-71
2023/07/10 12:14:21;;;;;;;4.30;4.00;;;;;;;;;;111819;1237;59027;-71
2023/07/10 12:16:55;;;;;;;6.70;4.60;;;;;;;;;;111580;1237;59036;-71
2023/07/10 12:19:25;;;;;;;5.50;4.80;;;;;;;;;;111871;1237;58952;-71
2023/07/10 12:21:51;;;;;;;7.20;4.50;;;;;;;;;;111859;1237;62041;-71
2023/07/10 12:24:17;;;;;;;6.60;4.60;;;;;;;;;;111854;1236;58908;-71
2023/07/10 12:26:43;;;;;;;7.60;4.50;;;;;;;;;;111507;1237;59046;-71
2023/07/10 12:29:13;;;;;;;5.20;4.30;;;;;;;;;;111876;1237;58978;-71
2023/07/10 12:31:40;;;;;;;5.00;4.50;;;;;;;;;;111855;1237;58877;-72
2023/07/10 12:34:13;;;;;;;8.00;4.70;;;;;;;;;;112267;1231;60749;-72
2023/07/10 12:36:39;;;;;;;7.00;4.60;;;;;;;;;;112601;1230;58914;-72
2023/07/10 12:39:07;;;;;;;7.10;5.10;;;;;;;;;;112569;1230;59084;-71
2023/07/10 12:41:34;;;;;;;6.60;4.70;;;;;;;;;;112537;1231;58911;-71
2023/07/10 12:44:01;;;;;;;6.60;4.70;;;;;;;;;;112268;1231;58944;-72
2023/07/10 12:46:28;;;;;;;7.10;4.10;;;;;;;;;;112633;1230;62855;-71
2023/07/10 12:48:57;;;;;;;6.10;4.90;;;;;;;;;;112571;1230;58875;-72
2023/07/10 12:51:26;;;;;;;7.30;4.70;;;;;;;;;;112573;1230;59553;-73
2023/07/10 12:53:51;;;;;;;;;;;;;;;;;;112613;1230;58997;-72
2023/07/10 12:56:17;;;;;;;9.60;5.00;;;;;;;;;;112635;1230;58969;-72
2023/07/10 12:58:46;;;;;;;10.80;5.40;;;;;;;;;;112640;1230;58875;-72
2023/07/10 13:01:17;;;;;;;8.60;5.00;;;;;;;;;;112598;1231;58798;-72
2023/07/10 13:04:00;;;;;;;7.30;5.60;;;;;;;;;;112566;1229;58971;-72
2023/07/10 13:06:25;;;;;;;8.80;5.00;;;;;;;;;;112636;1232;58884;-71
2023/07/10 13:08:54;;;;;;;7.30;5.00;;;;;;;;;;112658;1230;59114;-71
2023/07/10 13:11:21;;;;;;;7.10;5.20;;;;;;;;;;112612;1230;60450;-71
2023/07/10 13:13:47;;;;;;;7.20;5.00;;;;;;;;;;112655;1231;58902;-72
2023/07/10 13:16:18;;;;;;;5.60;5.00;;;;;;;;;;112558;1229;58945;-71
2023/07/10 13:18:43;;;;;;;8.80;5.00;;;;;;;;;;112211;1234;58932;-71
2023/07/10 13:21:13;;;;;;;8.10;4.80;;;;;;;;;;112651;1230;59229;-72
2023/07/10 13:23:39;;;;;;;6.00;4.50;;;;;;;;;;112588;1230;60678;-72
2023/07/10 13:26:21;;;;;;;8.40;4.40;;;;;;;;;;112590;1230;58863;-72
2023/07/10 13:28:48;;;;;;;5.60;4.80;;;;;;;;;;112565;1230;58917;-72
2023/07/10 13:31:16;;;;;;;7.40;4.40;;;;;;;;;;112574;1230;58910;-72
2023/07/10 13:33:41;;;;;;;9.10;5.10;;;;;;;;;;112623;1233;58952;-71
2023/07/10 13:36:18;;;;;;;7.00;5.10;;;;;;;;;;112600;1230;58921;-71
2023/07/10 13:38:44;;;;;;;6.10;4.70;;;;;;;;;;112643;1230;58930;-71
2023/07/10 13:41:12;;;;;;;9.90;5.20;;;;;;;;;;112574;1230;58935;-71
2023/07/10 13:43:38;;;;;;;6.00;5.10;;;;;;;;;;112524;1231;59387;-71
2023/07/10 13:46:12;;;;;;;9.90;5.10;;;;;;;;;;112665;1230;59040;-72
2023/07/10 13:48:38;;;;;;;5.00;4.60;;;;;;;;;;112637;1230;61985;-72
2023/07/10 13:51:03;;;;;;;5.30;4.80;;;;;;;;;;112586;1230;59211;-72
2023/07/10 13:53:29;;;;;;;7.20;4.90;;;;;;;;;;112624;1230;59349;-71
2023/07/10 13:55:55;;;;;;;8.70;5.00;;;;;;;;;;112625;1230;58867;-72
2023/07/10 13:58:22;;;;;;;7.60;5.00;;;;;;;;;;112611;1230;58972;-70
2023/07/10 14:00:50;;;;;;;5.50;5.00;;;;;;;;;;112687;1231;58937;-71
2023/07/10 14:03:17;;;;;;;7.40;4.90;;;;;;;;;;112575;1230;59991;-73
2023/07/10 14:05:43;;;;;;;5.60;5.00;;;;;;;;;;112268;1230;59100;-70
2023/07/10 14:08:15;;;;;;;5.90;4.70;;;;;;;;;;112556;1230;58932;-70
2023/07/10 14:10:41;;;;;;;5.00;4.50;;;;;;;;;;112585;1230;58788;-72
2023/07/10 14:13:10;;;;;;;5.10;4.60;;;;;;;;;;112608;1230;59009;-71
2023/07/10 14:15:38;;;;;;;6.30;4.80;;;;;;;;;;112576;1230;58985;-71
2023/07/10 14:18:10;;;;;;;5.10;4.70;;;;;;;;;;112608;1230;58969;-71
2023/07/10 14:20:36;;;;;;;6.10;5.50;;;;;;;;;;112188;1230;59068;-72
2023/07/10 14:23:09;;;;;;;6.10;5.50;;;;;;;;;;112611;1230;59007;-72